createdAt,value
2018-06-03T00:01:16.260Z,100326
2018-06-03T00:03:53.883Z,100321
2018-06-03T00:06:30.602Z,100323
2018-06-03T00:09:06.413Z,100327
2018-06-03T00:11:44.733Z,100326
2018-06-03T00:14:20.940Z,100328
2018-06-03T00:16:56.918Z,100332
2018-06-03T00:19:33.509Z,100338
2018-06-03T00:25:45.750Z,100338.00
2018-06-03T00:28:22.402Z,100338.00
2018-06-03T00:30:58.424Z,100335.00
2018-06-03T00:33:34.802Z,100334.00
2018-06-03T00:36:27.867Z,100339.00
2018-06-03T00:39:06.895Z,100344.00
2018-06-03T00:41:42.598Z,100346.00
2018-06-03T00:44:19.011Z,100341.00
2018-06-03T00:46:55.077Z,100339.00
2018-06-03T00:49:30.816Z,100340.00
2018-06-03T00:52:08.111Z,100341.00
2018-06-03T00:54:44.250Z,100341.00
2018-06-03T00:57:20.225Z,100340.00
2018-06-03T00:59:56.413Z,100340.00
2018-06-03T01:02:34.313Z,100341.00
2018-06-03T01:05:10.816Z,100340.00
2018-06-03T01:07:48.448Z,100338.00
2018-06-03T01:10:25.329Z,100334.00
2018-06-03T01:13:01.469Z,100339.00
2018-06-03T01:15:37.621Z,100334.00
2018-06-03T01:18:13.902Z,100330.00
2018-06-03T01:20:51.187Z,100332.00
2018-06-03T01:23:27.805Z,100329.00
2018-06-03T01:26:04.058Z,100329.00
2018-06-03T01:28:41.239Z,100330.00
2018-06-03T01:31:17.111Z,100321.00
2018-06-03T01:33:53.052Z,100319.00
2018-06-03T01:36:29.722Z,100321.00
2018-06-03T01:39:07.919Z,100322.00
2018-06-03T01:41:44.914Z,100319.00
2018-06-03T01:44:22.504Z,100318.00
2018-06-03T01:46:59.153Z,100309.00
2018-06-03T01:49:37.229Z,100307.00
2018-06-03T01:52:13.092Z,100305.00
2018-06-03T01:54:50.013Z,100302.00
2018-06-03T01:57:26.454Z,100304.00
2018-06-03T02:00:03.804Z,100304.00
2018-06-03T02:02:39.504Z,100299.00
2018-06-03T02:05:15.864Z,100306.00
2018-06-03T02:07:51.642Z,100309.00
2018-06-03T02:10:27.435Z,100299.00
2018-06-03T02:13:04.950Z,100307.00
2018-06-03T02:15:40.498Z,100305.00
2018-06-03T02:18:19.724Z,100304.00
2018-06-03T02:20:56.831Z,100314.00
2018-06-03T02:23:33.593Z,100306.00
2018-06-03T02:26:09.933Z,100309.00
2018-06-03T02:28:46.700Z,100312.00
2018-06-03T02:31:23.881Z,100317.00
2018-06-03T02:33:59.907Z,100319.00
2018-06-03T02:36:36.542Z,100317.00
2018-06-03T02:39:13.101Z,100314.00
2018-06-03T02:41:48.794Z,100316.00
2018-06-03T02:44:25.648Z,100317.00
2018-06-03T02:47:01.392Z,100317.00
2018-06-03T02:49:41.865Z,100317.00
2018-06-03T02:52:19.981Z,100319.00
2018-06-03T02:54:56.158Z,100321.00
2018-06-03T02:57:32.998Z,100321.00
2018-06-03T03:00:10.084Z,100320.00
2018-06-03T03:02:46.333Z,100321.00
2018-06-03T03:05:23.420Z,100322.00
2018-06-03T03:07:59.680Z,100321.00
2018-06-03T03:10:36.375Z,100326.00
2018-06-03T03:13:13.945Z,100323.00
2018-06-03T03:15:50.317Z,100321.00
2018-06-03T03:18:26.676Z,100326.00
2018-06-03T03:21:04.047Z,100326.00
2018-06-03T03:23:42.177Z,100327.00
2018-06-03T03:26:20.044Z,100323.00
2018-06-03T03:28:55.811Z,100325.00
2018-06-03T03:31:31.857Z,100325.00
2018-06-03T03:34:08.559Z,100325.00
2018-06-03T03:36:44.756Z,100318.00
2018-06-03T03:39:20.692Z,100321.00
2018-06-03T03:41:56.719Z,100320.00
2018-06-03T03:44:33.097Z,100319.00
2018-06-03T03:47:10.700Z,100323.00
2018-06-03T03:49:47.102Z,100322.00
2018-06-03T03:52:22.692Z,100322.00
2018-06-03T03:54:59.291Z,100324.00
2018-06-03T03:57:35.872Z,100315.00
2018-06-03T04:00:12.222Z,100326.00
2018-06-03T04:02:48.885Z,100322.00
2018-06-03T04:05:24.971Z,100324.00
2018-06-03T04:08:00.689Z,100324.00
2018-06-03T04:10:37.116Z,100324.00
2018-06-03T04:13:14.619Z,100325.00
2018-06-03T04:15:51.305Z,100328.00
2018-06-03T04:18:29.080Z,100326.00
2018-06-03T04:21:05.373Z,100327.00
2018-06-03T04:23:42.577Z,100334.00
2018-06-03T04:26:19.078Z,100340.00
2018-06-03T04:28:57.260Z,100343.00
2018-06-03T04:31:34.750Z,100342.00
2018-06-03T04:34:10.922Z,100339.00
2018-06-03T04:36:47.350Z,100338.00
2018-06-03T04:39:24.984Z,100337.00
2018-06-03T04:42:02.628Z,100337.00
2018-06-03T04:44:38.791Z,100351.00
2018-06-03T04:47:15.515Z,100349.00
2018-06-03T04:49:52.365Z,100347.00
2018-06-03T04:52:28.816Z,100344.00
2018-06-03T04:55:06.122Z,100351.00
2018-06-03T04:57:42.746Z,100346.00
2018-06-03T05:00:20.309Z,100345.00
2018-06-03T05:02:56.575Z,100350.00
2018-06-03T05:05:33.556Z,100348.00
2018-06-03T05:08:10.985Z,100346.00
2018-06-03T05:10:47.272Z,100344.00
2018-06-03T05:13:23.531Z,100339.00
2018-06-03T05:16:00.518Z,100340.00
2018-06-03T05:18:36.366Z,100340.00
2018-06-03T05:21:13.061Z,100340.00
2018-06-03T05:23:51.009Z,100334.00
2018-06-03T05:26:28.286Z,100335.00
2018-06-03T05:29:05.914Z,100338.00
2018-06-03T05:31:42.493Z,100339.00
2018-06-03T05:34:18.934Z,100338.00
2018-06-03T05:36:57.408Z,100336.00
2018-06-03T05:39:35.293Z,100338.00
2018-06-03T05:42:12.729Z,100331.00
2018-06-03T05:44:48.957Z,100335.00
2018-06-03T05:47:25.907Z,100335.00
2018-06-03T05:50:02.277Z,100333.00
2018-06-03T05:52:38.904Z,100337.00
2018-06-03T05:55:15.077Z,100335.00
2018-06-03T05:57:51.313Z,100338.00
2018-06-03T06:00:28.621Z,100334.00
2018-06-03T06:03:04.764Z,100334.00
2018-06-03T06:05:42.173Z,100330.00
2018-06-03T06:08:19.716Z,100335.00
2018-06-03T06:10:57.198Z,100331.00
2018-06-03T06:13:35.114Z,100336.00
2018-06-03T06:16:10.664Z,100339.00
2018-06-03T06:18:48.273Z,100346.00
2018-06-03T06:21:25.038Z,100343.00
2018-06-03T06:24:02.580Z,100349.00
2018-06-03T06:26:38.445Z,100347.00
2018-06-03T06:29:14.774Z,100352.00
2018-06-03T06:31:50.885Z,100355.00
2018-06-03T06:34:27.892Z,100356.00
2018-06-03T06:37:04.875Z,100356.00
2018-06-03T06:39:40.928Z,100354.00
2018-06-03T06:42:20.243Z,100356.00
2018-06-03T06:44:57.637Z,100366.00
2018-06-03T06:47:34.613Z,100366.00
2018-06-03T06:50:12.558Z,100375.00
2018-06-03T06:52:50.341Z,100368.00
2018-06-03T06:55:28.330Z,100374.00
2018-06-03T06:58:06.661Z,100376.00
2018-06-03T07:00:44.004Z,100373.00
2018-06-03T07:03:20.844Z,100377.00
2018-06-03T07:05:56.692Z,100379.00
2018-06-03T07:08:32.916Z,100376.00
2018-06-03T07:11:12.025Z,100378.00
2018-06-03T07:13:49.073Z,100385.00
2018-06-03T07:16:26.624Z,100377.00
2018-06-03T07:19:05.566Z,100379.00
2018-06-03T07:21:43.705Z,100374.00
2018-06-03T07:24:20.661Z,100380.00
2018-06-03T07:26:57.770Z,100377.00
2018-06-03T07:29:34.673Z,100377.00
2018-06-03T07:32:10.977Z,100379.00
2018-06-03T07:34:47.308Z,100376.00
2018-06-03T07:37:25.450Z,100376.00
2018-06-03T07:40:02.546Z,100377.00
2018-06-03T07:42:40.753Z,100380.00
2018-06-03T07:45:17.504Z,100387.00
2018-06-03T07:47:53.350Z,100387.00
2018-06-03T07:50:30.994Z,100382.00
2018-06-03T07:53:08.387Z,100387.00
2018-06-03T07:55:44.235Z,100388.00
2018-06-03T07:58:21.368Z,100383.00
2018-06-03T08:01:00.774Z,100391.00
2018-06-03T08:03:38.268Z,100389.00
2018-06-03T08:06:15.697Z,100382.00
2018-06-03T08:08:53.268Z,100383.00
2018-06-03T08:11:30.000Z,100384.00
2018-06-03T08:14:07.426Z,100387.00
2018-06-03T08:16:43.918Z,100382.00
2018-06-03T08:19:20.550Z,100382.00
2018-06-03T08:21:57.365Z,100384.00
2018-06-03T08:24:34.202Z,100385.00
2018-06-03T08:27:10.624Z,100380.00
2018-06-03T08:29:47.899Z,100380.00
2018-06-03T08:32:26.421Z,100381.00
2018-06-03T08:35:02.560Z,100384.00
2018-06-03T08:37:39.131Z,100386.00
2018-06-03T08:40:15.243Z,100385.00
2018-06-03T08:42:52.032Z,100383.00
2018-06-03T08:45:28.873Z,100384.00
2018-06-03T08:48:04.913Z,100384.00
2018-06-03T08:50:41.721Z,100383.00
2018-06-03T08:53:18.375Z,100384.00
2018-06-03T08:55:56.160Z,100389.00
2018-06-03T08:58:32.236Z,100391.00
2018-06-03T09:01:10.442Z,100398.00
2018-06-03T09:03:47.489Z,100395.00
2018-06-03T09:06:26.429Z,100391.00
2018-06-03T09:09:04.145Z,100391.00
2018-06-03T09:11:41.792Z,100398.00
2018-06-03T09:14:18.120Z,100400.00
2018-06-03T09:16:57.037Z,100397.00
2018-06-03T09:19:33.889Z,100395.00
2018-06-03T09:22:10.545Z,100395.00
2018-06-03T09:24:47.349Z,100391.00
2018-06-03T09:27:25.145Z,100398.00
2018-06-03T09:30:02.706Z,100401.00
2018-06-03T09:32:40.518Z,100399.00
2018-06-03T09:35:18.071Z,100403.00
2018-06-03T09:37:55.489Z,100402.00
2018-06-03T09:40:31.801Z,100397.00
2018-06-03T09:43:07.643Z,100402.00
2018-06-03T09:45:44.125Z,100398.00
2018-06-03T09:48:20.064Z,100394.00
2018-06-03T09:50:58.120Z,100397.00
2018-06-03T09:53:34.937Z,100396.00
2018-06-03T09:56:12.539Z,100397.00
2018-06-03T09:58:50.442Z,100398.00
2018-06-03T10:01:29.576Z,100391.00
2018-06-03T10:04:06.658Z,100394.00
2018-06-03T10:06:43.835Z,100390.00
2018-06-03T10:09:21.116Z,100387.00
2018-06-03T10:11:57.213Z,100385.00
2018-06-03T10:14:34.578Z,100385.00
2018-06-03T10:17:12.869Z,100382.00
2018-06-03T10:19:50.706Z,100384.00
2018-06-03T10:22:29.089Z,100380.00
2018-06-03T10:25:06.566Z,100371.00
2018-06-03T10:27:43.766Z,100374.00
2018-06-03T10:30:21.371Z,100373.00
2018-06-03T10:32:58.083Z,100376.00
2018-06-03T10:35:34.541Z,100367.00
2018-06-03T10:38:10.473Z,100367.00
2018-06-03T10:40:47.961Z,100362.00
2018-06-03T10:43:25.344Z,100368.00
2018-06-03T10:46:02.917Z,100362.00
2018-06-03T10:48:40.573Z,100368.00
2018-06-03T10:51:16.908Z,100374.00
2018-06-03T10:53:54.884Z,100360.00
2018-06-03T10:56:34.884Z,100356.00
2018-06-03T10:59:12.445Z,100353.00
2018-06-03T11:01:50.181Z,100353.00
2018-06-03T11:04:30.173Z,100348.00
2018-06-03T11:07:06.330Z,100343.00
2018-06-03T11:09:43.103Z,100346.00
2018-06-03T11:12:21.001Z,100346.00
2018-06-03T11:14:58.500Z,100351.00
2018-06-03T11:17:36.341Z,100344.00
2018-06-03T11:20:12.799Z,100339.00
2018-06-03T11:22:49.833Z,100336.00
2018-06-03T11:25:26.401Z,100332.00
2018-06-03T11:28:02.929Z,100329.00
2018-06-03T11:30:40.294Z,100329.00
2018-06-03T11:33:17.157Z,100329.00
2018-06-03T11:35:55.241Z,100334.00
2018-06-03T11:38:32.517Z,100332.00
2018-06-03T11:41:09.233Z,100332.00
2018-06-03T11:43:47.575Z,100335.00
2018-06-03T11:46:25.917Z,100330.00
2018-06-03T11:49:04.222Z,100325.00
2018-06-03T11:51:41.119Z,100322.00
2018-06-03T11:54:18.366Z,100320.00
2018-06-03T11:57:03.293Z,100316.00
2018-06-03T11:59:44.062Z,100303.00
2018-06-03T12:02:21.420Z,100304.00
2018-06-03T12:04:58.926Z,100300.00
2018-06-03T12:07:36.085Z,100302.00
2018-06-03T12:10:12.513Z,100303.00
2018-06-03T12:12:50.712Z,100296.00
2018-06-03T12:15:26.479Z,100303.00
2018-06-03T12:18:04.719Z,100299.00
2018-06-03T12:20:42.688Z,100294.00
2018-06-03T12:23:21.180Z,100291.00
2018-06-03T12:25:58.487Z,100288.00
2018-06-03T12:28:35.797Z,100275.00
2018-06-03T12:31:12.761Z,100266.00
2018-06-03T12:33:49.125Z,100268.00
2018-06-03T12:36:27.325Z,100266.00
2018-06-03T12:39:06.713Z,100269.00
2018-06-03T12:41:43.903Z,100274.00
2018-06-03T12:44:20.417Z,100267.00
2018-06-03T12:46:57.455Z,100271.00
2018-06-03T12:49:35.337Z,100264.00
2018-06-03T12:52:14.495Z,100261.00
2018-06-03T12:54:51.581Z,100243.00
2018-06-03T12:57:29.134Z,100259.00
2018-06-03T13:00:05.854Z,100247.00
2018-06-03T13:02:42.130Z,100245.00
2018-06-03T13:05:18.932Z,100245.00
2018-06-03T13:07:56.304Z,100246.00
2018-06-03T13:10:39.685Z,100246.00
2018-06-03T13:13:17.635Z,100240.00
2018-06-03T13:15:54.901Z,100252.00
2018-06-03T13:18:32.491Z,100242.00
2018-06-03T13:21:09.584Z,100231.00
2018-06-03T13:23:46.105Z,100223.00
2018-06-03T13:26:22.818Z,100222.00
2018-06-03T13:29:00.101Z,100225.00
2018-06-03T13:31:36.925Z,100220.00
2018-06-03T13:34:13.693Z,100224.00
2018-06-03T13:36:51.359Z,100227.00
2018-06-03T13:39:30.055Z,100226.00
2018-06-03T13:42:07.630Z,100211.00
2018-06-03T13:44:44.841Z,100207.00
2018-06-03T13:47:22.309Z,100213.00
2018-06-03T13:49:59.079Z,100210.00
2018-06-03T13:52:36.867Z,100199.00
2018-06-03T13:55:12.989Z,100190.00
2018-06-03T13:57:50.011Z,100199.00
2018-06-03T14:00:27.576Z,100197.00
2018-06-03T14:03:04.968Z,100196.00
2018-06-03T14:05:41.909Z,100192.00
2018-06-03T14:08:19.849Z,100185.00
2018-06-03T14:10:57.386Z,100195.00
2018-06-03T14:13:34.947Z,100190.00
2018-06-03T14:16:11.621Z,100190.00
2018-06-03T14:18:49.605Z,100188.00
2018-06-03T14:21:25.976Z,100184.00
2018-06-03T14:24:02.896Z,100178.00
2018-06-03T14:26:40.075Z,100190.00
2018-06-03T14:29:17.105Z,100185.00
2018-06-03T14:31:54.853Z,100181.00
2018-06-03T14:34:32.615Z,100193.00
2018-06-03T14:37:10.168Z,100188.00
2018-06-03T14:39:47.712Z,100181.00
2018-06-03T14:42:25.037Z,100186.00
2018-06-03T14:45:03.318Z,100184.00
2018-06-03T14:47:39.810Z,100173.00
2018-06-03T14:50:16.289Z,100173.00
2018-06-03T14:52:53.049Z,100179.00
2018-06-03T14:55:30.596Z,100178.00
2018-06-03T14:58:08.401Z,100175.00
2018-06-03T15:00:45.946Z,100169.00
2018-06-03T15:03:23.274Z,100170.00
2018-06-03T15:06:00.956Z,100160.00
2018-06-03T15:08:37.161Z,100156.00
2018-06-03T15:11:13.962Z,100143.00
2018-06-03T15:13:51.183Z,100153.00
2018-06-03T15:16:28.555Z,100155.00
2018-06-03T15:19:05.616Z,100148.00
2018-06-03T15:21:42.250Z,100147.00
2018-06-03T15:24:19.308Z,100154.00
2018-06-03T15:26:55.824Z,100143.00
2018-06-03T15:29:34.128Z,100142.00
2018-06-03T15:32:11.076Z,100136.00
2018-06-03T15:34:46.977Z,100141.00
2018-06-03T15:37:24.267Z,100132.00
2018-06-03T15:40:00.609Z,100132.00
2018-06-03T15:42:38.101Z,100127.00
2018-06-03T15:45:15.766Z,100126.00
2018-06-03T15:47:52.818Z,100125.00
2018-06-03T15:50:29.296Z,100124.00
2018-06-03T15:53:06.728Z,100125.00
2018-06-03T15:55:43.563Z,100125.00
2018-06-03T15:58:19.609Z,100120.00
2018-06-03T16:00:56.096Z,100120.00
2018-06-03T16:03:32.615Z,100113.00
2018-06-03T16:06:10.929Z,100116.00
2018-06-03T16:08:48.819Z,100110.00
2018-06-03T16:11:25.291Z,100115.00
2018-06-03T16:14:01.818Z,100108.00
2018-06-03T16:16:40.324Z,100104.00
2018-06-03T16:19:17.349Z,100100.00
2018-06-03T16:21:53.905Z,100097.00
2018-06-03T16:24:31.273Z,100092.00
2018-06-03T16:27:07.637Z,100096.00
2018-06-03T16:29:44.904Z,100096.00
2018-06-03T16:32:21.632Z,100096.00
2018-06-03T16:34:58.048Z,100094.00
2018-06-03T16:37:36.812Z,100096.00
2018-06-03T16:40:14.402Z,100089.00
2018-06-03T16:42:51.599Z,100087.00
2018-06-03T16:45:30.553Z,100090.00
2018-06-03T16:48:07.771Z,100084.00
2018-06-03T16:50:43.540Z,100087.00
2018-06-03T16:53:19.750Z,100080.00
2018-06-03T16:55:56.974Z,100086.00
2018-06-03T16:58:33.109Z,100080.00
2018-06-03T17:01:09.713Z,100072.00
2018-06-03T17:03:46.877Z,100075.00
2018-06-03T17:06:23.580Z,100079.00
2018-06-03T17:09:02.805Z,100076.00
2018-06-03T17:11:38.672Z,100073.00
2018-06-03T17:14:16.105Z,100075.00
2018-06-03T17:16:53.349Z,100080.00
2018-06-03T17:19:30.536Z,100081.00
2018-06-03T17:22:07.480Z,100081.00
2018-06-03T17:24:43.362Z,100075.00
2018-06-03T17:27:19.901Z,100078.00
2018-06-03T17:29:56.725Z,100077.00
2018-06-03T17:32:33.042Z,100081.00
2018-06-03T17:35:10.432Z,100081.00
2018-06-03T17:37:46.719Z,100072.00
2018-06-03T17:40:23.851Z,100075.00
2018-06-03T17:43:00.927Z,100073.00
2018-06-03T17:45:37.330Z,100072.00
2018-06-03T17:48:14.828Z,100070.00
2018-06-03T17:50:51.139Z,100069.00
2018-06-03T17:53:27.295Z,100065.00
2018-06-03T17:56:05.426Z,100061.00
2018-06-03T17:58:41.597Z,100064.00
2018-06-03T18:01:17.810Z,100065.00
2018-06-03T18:03:54.377Z,100066.00
2018-06-03T18:06:31.378Z,100061.00
2018-06-03T18:09:10.966Z,100060.00
2018-06-03T18:11:48.373Z,100063.00
2018-06-03T18:14:25.485Z,100064.00
2018-06-03T18:17:02.724Z,100054.00
2018-06-03T18:19:40.233Z,100052.00
2018-06-03T18:22:16.228Z,100052.00
2018-06-03T18:24:52.963Z,100051.00
2018-06-03T18:27:29.809Z,100049.00
2018-06-03T18:30:06.425Z,100049.00
2018-06-03T18:32:43.126Z,100044.00
2018-06-03T18:35:20.343Z,100046.00
2018-06-03T18:37:56.640Z,100055.00
2018-06-03T18:40:33.021Z,100052.00
2018-06-03T18:43:10.767Z,100051.00
2018-06-03T18:45:49.385Z,100047.00
2018-06-03T18:48:28.254Z,100044.00
2018-06-03T18:51:06.278Z,100044.00
2018-06-03T18:53:42.602Z,100044.00
2018-06-03T18:56:20.004Z,100042.00
2018-06-03T18:58:56.189Z,100037.00
2018-06-03T19:01:32.334Z,100045.00
2018-06-03T19:04:09.544Z,100042.00
2018-06-03T19:06:45.630Z,100047.00
2018-06-03T19:09:22.662Z,100046.00
2018-06-03T19:11:58.967Z,100051.00
2018-06-03T19:14:35.861Z,100048.00
2018-06-03T19:17:13.930Z,100052.00
2018-06-03T19:19:49.870Z,100050.00
2018-06-03T19:22:26.985Z,100053.00
2018-06-03T19:25:03.614Z,100053.00
2018-06-03T19:27:41.292Z,100051.00
2018-06-03T19:30:17.498Z,100056.00
2018-06-03T19:32:54.865Z,100054.00
2018-06-03T19:35:31.139Z,100060.00
2018-06-03T19:38:07.104Z,100059.00
2018-06-03T19:40:44.679Z,100064.00
2018-06-03T19:43:20.912Z,100064.00
2018-06-03T19:45:57.926Z,100065.00
2018-06-03T19:48:35.782Z,100070.00
2018-06-03T19:51:12.420Z,100071.00
2018-06-03T19:53:49.174Z,100072.00
2018-06-03T19:56:25.403Z,100075.00
2018-06-03T19:59:03.081Z,100080.00
2018-06-03T20:01:40.077Z,100077.00
2018-06-03T20:04:16.998Z,100078.00
2018-06-03T20:06:53.354Z,100072.00
2018-06-03T20:09:31.630Z,100079.00
2018-06-03T20:12:08.493Z,100082.00
2018-06-03T20:14:46.770Z,100080.00
2018-06-03T20:17:23.053Z,100078.00
2018-06-03T20:19:59.291Z,100081.00
2018-06-03T20:22:36.413Z,100078.00
2018-06-03T20:25:12.333Z,100075.00
2018-06-03T20:27:50.118Z,100078.00
2018-06-03T20:30:28.477Z,100077.00
2018-06-03T20:33:05.297Z,100072.00
2018-06-03T20:35:42.994Z,100076.00
2018-06-03T20:38:21.194Z,100073.00
2018-06-03T20:40:57.533Z,100074.00
2018-06-03T20:43:33.804Z,100071.00
2018-06-03T20:46:09.981Z,100074.00
2018-06-03T20:48:45.864Z,100082.00
2018-06-03T20:51:22.385Z,100083.00
2018-06-03T20:54:00.005Z,100087.00
2018-06-03T20:56:35.437Z,100085.00
2018-06-03T20:59:11.446Z,100086.00
2018-06-03T21:01:48.721Z,100084.00
2018-06-03T21:04:26.822Z,100081.00
2018-06-03T21:07:04.513Z,100081.00
2018-06-03T21:09:40.521Z,100083.00
2018-06-03T21:12:18.153Z,100083.00
2018-06-03T21:14:55.920Z,100081.00
2018-06-03T21:17:32.530Z,100080.00
2018-06-03T21:20:09.402Z,100085.00
2018-06-03T21:22:46.956Z,100086.00
2018-06-03T21:25:23.669Z,100087.00
2018-06-03T21:28:01.204Z,100085.00
2018-06-03T21:30:37.634Z,100085.00
2018-06-03T21:33:15.016Z,100089.00
2018-06-03T21:35:52.797Z,100085.00
2018-06-03T21:38:29.733Z,100085.00
2018-06-03T21:41:07.177Z,100087.00
2018-06-03T21:43:43.293Z,100087.00
2018-06-03T21:46:21.293Z,100086.00
2018-06-03T21:48:58.631Z,100089.00
2018-06-03T21:51:34.677Z,100087.00
2018-06-03T21:54:11.101Z,100082.00
2018-06-03T21:56:47.528Z,100079.00
2018-06-03T21:59:23.595Z,100081.00
2018-06-03T22:02:00.210Z,100079.00
2018-06-03T22:04:36.099Z,100078.00
2018-06-03T22:07:12.673Z,100070.00
2018-06-03T22:09:50.969Z,100075.00
2018-06-03T22:12:27.385Z,100076.00
2018-06-03T22:15:04.425Z,100073.00
2018-06-03T22:17:40.793Z,100066.00
2018-06-03T22:20:17.402Z,100070.00
2018-06-03T22:22:54.250Z,100071.00
2018-06-03T22:25:30.829Z,100065.00
2018-06-03T22:28:09.978Z,100069.00
2018-06-03T22:30:47.553Z,100064.00
2018-06-03T22:33:25.665Z,100062.00
2018-06-03T22:36:02.836Z,100064.00
2018-06-03T22:38:40.269Z,100065.00
2018-06-03T22:41:17.114Z,100064.00
2018-06-03T22:43:53.696Z,100062.00
2018-06-03T22:46:30.008Z,100062.00
2018-06-03T22:49:08.936Z,100068.00
2018-06-03T22:51:45.688Z,100065.00
2018-06-03T22:54:21.929Z,100069.00
2018-06-03T22:58:09.005Z,100065.00
2018-06-03T23:00:47.710Z,100069.00
2018-06-03T23:03:25.378Z,100074.00
2018-06-03T23:06:02.131Z,100068.00
2018-06-03T23:08:38.964Z,100067.00
2018-06-03T23:11:15.518Z,100064.00
2018-06-03T23:13:52.153Z,100064.00
2018-06-03T23:16:28.422Z,100066.00
2018-06-03T23:19:04.336Z,100064.00
2018-06-03T23:21:40.209Z,100064.00
2018-06-03T23:24:16.063Z,100069.00
2018-06-03T23:26:52.131Z,100064.00
2018-06-03T23:29:27.906Z,100059.00
2018-06-03T23:32:04.113Z,100064.00
2018-06-03T23:34:41.727Z,100067.00
2018-06-03T23:37:26.322Z,100066.00
2018-06-03T23:40:04.063Z,100065.00
2018-06-03T23:42:41.584Z,100065.00
2018-06-03T23:45:17.644Z,100062.00
2018-06-03T23:47:53.979Z,100065.00
2018-06-03T23:50:29.733Z,100061.00
2018-06-03T23:53:05.793Z,100060.00
2018-06-03T23:55:41.657Z,100059.00
2018-06-03T23:58:18.504Z,100060.00
